createdAt,value
2019-04-05T00:02:04.269Z,6.22
2019-04-05T00:04:31.666Z,6.40
2019-04-05T00:06:59.085Z,5.53
2019-04-05T00:09:26.493Z,6.93
2019-04-05T00:11:53.895Z,7.95
2019-04-05T00:14:21.309Z,7.95
2019-04-05T00:16:48.726Z,6.30
2019-04-05T00:19:16.129Z,8.73
2019-04-05T00:21:43.535Z,7.80
2019-04-05T00:24:10.936Z,6.90
2019-04-05T00:26:38.346Z,6.80
2019-04-05T00:29:05.738Z,6.30
2019-04-05T00:31:33.153Z,6.55
2019-04-05T00:34:00.556Z,4.78
2019-04-05T00:36:28.012Z,6.28
2019-04-05T00:38:55.422Z,6.20
2019-04-05T00:41:22.823Z,6.10
2019-04-05T00:43:50.219Z,5.85
2019-04-05T00:46:17.647Z,7.50
2019-04-05T00:48:45.032Z,6.87
2019-04-05T00:51:12.426Z,6.15
2019-04-05T00:53:39.832Z,5.60
2019-04-05T00:56:07.250Z,6.53
2019-04-05T00:58:34.650Z,5.15
2019-04-05T01:01:02.068Z,6.22
2019-04-05T01:03:29.519Z,5.30
2019-04-05T01:05:56.931Z,7.22
2019-04-05T01:08:24.337Z,4.95
2019-04-05T01:10:51.768Z,5.78
2019-04-05T01:13:19.163Z,6.15
2019-04-05T01:15:46.559Z,7.15
2019-04-05T01:18:13.963Z,4.97
2019-04-05T01:20:40.673Z,6.65
2019-04-05T01:23:08.072Z,5.78
2019-04-05T01:25:35.456Z,5.97
2019-04-05T01:28:02.870Z,6.03
2019-04-05T01:30:30.274Z,6.82
2019-04-05T01:32:57.696Z,7.32
2019-04-05T01:35:25.154Z,7.95
2019-04-05T01:37:52.546Z,6.40
2019-04-05T01:40:19.958Z,6.93
2019-04-05T01:42:47.357Z,6.65
2019-04-05T01:45:14.787Z,7.70
2019-04-05T01:47:42.214Z,6.68
2019-04-05T01:50:09.607Z,5.97
2019-04-05T01:52:36.990Z,6.85
2019-04-05T01:55:05.235Z,6.03
2019-04-05T01:57:32.678Z,6.75
2019-04-05T02:00:00.132Z,6.35
2019-04-05T02:02:27.536Z,6.43
2019-04-05T02:04:54.961Z,6.82
2019-04-05T02:07:22.397Z,7.28
2019-04-05T02:09:49.795Z,6.05
2019-04-05T02:12:17.211Z,7.10
2019-04-05T02:14:44.614Z,7.20
2019-04-05T02:17:12.014Z,7.07
2019-04-05T02:19:39.422Z,6.45
2019-04-05T02:22:06.831Z,6.50
2019-04-05T02:24:34.254Z,5.82
2019-04-05T02:27:01.653Z,6.20
2019-04-05T02:29:29.047Z,5.72
2019-04-05T02:31:56.452Z,5.22
2019-04-05T02:34:23.893Z,5.80
2019-04-05T02:36:51.288Z,5.75
2019-04-05T02:39:18.690Z,5.72
2019-04-05T02:41:46.111Z,6.18
2019-04-05T02:44:13.519Z,4.80
2019-04-05T02:46:40.928Z,5.28
2019-04-05T02:49:08.329Z,5.32
2019-04-05T02:51:36.324Z,5.95
2019-04-05T02:54:03.733Z,6.75
2019-04-05T02:56:31.210Z,6.05
2019-04-05T02:58:58.648Z,7.00
2019-04-05T03:01:26.054Z,4.78
2019-04-05T03:03:53.455Z,4.80
2019-04-05T03:06:20.851Z,8.20
2019-04-05T03:08:48.303Z,4.12
2019-04-05T03:11:15.712Z,5.18
2019-04-05T03:13:43.940Z,6.20
2019-04-05T03:16:12.270Z,5.40
2019-04-05T03:18:39.678Z,4.40
2019-04-05T03:21:07.078Z,5.50
2019-04-05T03:23:34.492Z,4.97
2019-04-05T03:26:01.892Z,4.20
2019-04-05T03:28:29.300Z,3.95
2019-04-05T03:30:56.701Z,4.72
2019-04-05T03:33:24.131Z,4.57
2019-04-05T03:35:51.587Z,4.20
2019-04-05T03:38:18.986Z,4.50
2019-04-05T03:40:46.399Z,4.72
2019-04-05T03:43:13.811Z,4.37
2019-04-05T03:45:41.247Z,4.20
2019-04-05T03:48:08.646Z,4.20
2019-04-05T03:50:36.080Z,4.50
2019-04-05T03:53:03.490Z,4.10
2019-04-05T03:55:30.889Z,3.78
2019-04-05T03:57:58.321Z,4.40
2019-04-05T04:00:25.737Z,4.87
2019-04-05T04:02:53.142Z,3.30
2019-04-05T04:05:20.576Z,3.95
2019-04-05T04:07:47.971Z,2.97
2019-04-05T04:10:15.390Z,3.33
2019-04-05T04:12:42.783Z,3.17
2019-04-05T04:15:14.180Z,4.00
2019-04-05T04:17:40.482Z,3.53
2019-04-05T04:20:08.076Z,3.17
2019-04-05T04:22:35.494Z,4.50
2019-04-05T04:25:02.904Z,3.53
2019-04-05T04:27:30.318Z,2.50
2019-04-05T04:30:00.341Z,3.12
2019-04-05T04:32:25.241Z,3.35
2019-04-05T04:34:52.641Z,3.90
2019-04-05T04:37:20.044Z,3.35
2019-04-05T04:39:47.435Z,3.65
2019-04-05T04:42:14.858Z,3.50
2019-04-05T04:44:42.322Z,3.25
2019-04-05T04:47:09.721Z,3.15
2019-04-05T04:49:37.156Z,3.72
2019-04-05T04:52:05.132Z,3.80
2019-04-05T04:54:32.544Z,4.10
2019-04-05T04:56:59.940Z,4.12
2019-04-05T04:59:27.343Z,4.85
2019-04-05T05:01:54.760Z,4.68
2019-04-05T05:04:22.193Z,5.00
2019-04-05T05:06:49.660Z,4.00
2019-04-05T05:09:17.068Z,4.53
2019-04-05T05:11:44.465Z,4.95
2019-04-05T05:14:11.888Z,5.65
2019-04-05T05:16:39.307Z,5.32
2019-04-05T05:19:06.726Z,5.65
2019-04-05T05:21:34.149Z,6.32
2019-04-05T05:24:01.563Z,6.15
2019-04-05T05:26:28.971Z,3.95
2019-04-05T05:28:56.365Z,4.80
2019-04-05T05:31:23.767Z,4.90
2019-04-05T05:33:51.176Z,5.47
2019-04-05T05:36:18.582Z,4.93
2019-04-05T05:38:46.175Z,5.70
2019-04-05T05:41:13.675Z,4.30
2019-04-05T05:43:41.090Z,4.57
2019-04-05T05:46:08.559Z,5.35
2019-04-05T05:48:35.964Z,4.18
2019-04-05T05:51:03.396Z,3.97
2019-04-05T05:53:30.787Z,4.10
2019-04-05T05:55:58.184Z,4.87
2019-04-05T05:58:26.383Z,5.03
2019-04-05T06:00:52.999Z,4.32
2019-04-05T06:03:20.478Z,4.68
2019-04-05T06:05:47.899Z,5.30
2019-04-05T06:08:15.454Z,5.97
2019-04-05T06:10:42.844Z,6.62
2019-04-05T06:13:10.265Z,5.07
2019-04-05T06:15:37.814Z,6.20
2019-04-05T06:20:38.988Z,5.07
2019-04-05T06:23:06.433Z,13.73
2019-04-05T06:25:33.830Z,6.00
2019-04-05T06:28:01.232Z,6.28
2019-04-05T06:30:28.986Z,6.12
2019-04-05T06:32:56.139Z,5.95
2019-04-05T06:35:23.536Z,5.80
2019-04-05T06:37:50.936Z,7.40
2019-04-05T06:40:18.516Z,6.10
2019-04-05T06:42:45.916Z,5.25
2019-04-05T06:45:13.524Z,6.75
2019-04-05T06:47:40.911Z,5.85
2019-04-05T06:50:08.315Z,5.97
2019-04-05T06:52:35.709Z,5.40
2019-04-05T06:55:03.106Z,4.75
2019-04-05T06:57:30.511Z,7.05
2019-04-05T06:59:57.904Z,6.12
2019-04-05T07:02:25.317Z,5.53
2019-04-05T07:04:52.711Z,4.93
2019-04-05T07:07:20.129Z,5.68
2019-04-05T07:09:47.674Z,6.28
2019-04-05T07:12:15.107Z,8.65
2019-04-05T07:14:42.616Z,5.45
2019-04-05T07:17:10.028Z,4.45
2019-04-05T07:19:37.450Z,5.20
2019-04-05T07:22:04.857Z,5.37
2019-04-05T07:24:32.257Z,4.32
2019-04-05T07:26:59.957Z,3.90
2019-04-05T07:29:27.440Z,4.80
2019-04-05T07:31:55.365Z,4.40
2019-04-05T07:34:22.761Z,3.95
2019-04-05T07:36:50.180Z,4.85
2019-04-05T07:39:17.634Z,4.10
2019-04-05T07:41:45.228Z,4.87
2019-04-05T07:44:12.680Z,5.05
2019-04-05T07:46:40.202Z,4.18
2019-04-05T07:49:07.643Z,4.15
2019-04-05T07:51:35.079Z,5.07
2019-04-05T07:54:02.475Z,4.93
2019-04-05T07:56:29.971Z,5.18
2019-04-05T07:58:57.447Z,6.07
2019-04-05T08:01:24.852Z,7.28
2019-04-05T08:03:53.174Z,7.25
2019-04-05T08:06:20.590Z,5.47
2019-04-05T08:08:58.768Z,6.80
2019-04-05T08:11:26.285Z,4.10
2019-04-05T08:13:53.693Z,5.32
2019-04-05T08:16:21.099Z,3.87
2019-04-05T08:18:57.505Z,4.85
2019-04-05T08:21:16.054Z,3.50
2019-04-05T08:23:44.287Z,5.05
2019-04-05T08:26:11.743Z,4.70
2019-04-05T08:28:39.147Z,3.45
2019-04-05T08:31:10.559Z,3.10
2019-04-05T08:38:28.108Z,3.53
2019-04-05T08:40:55.608Z,3.67
2019-04-05T08:43:23.014Z,3.35
2019-04-05T11:03:02.144Z,5.75
2019-04-05T11:05:29.560Z,4.00
2019-04-05T11:07:56.960Z,4.47
2019-04-05T11:10:24.425Z,4.07
2019-04-05T11:12:51.847Z,4.03
2019-04-05T11:17:46.277Z,5.43
2019-04-05T11:20:21.343Z,4.82
2019-04-05T11:22:41.280Z,4.40
2019-04-05T11:25:08.708Z,6.18
2019-04-05T11:27:36.111Z,4.60
2019-04-05T11:30:03.504Z,5.12
2019-04-05T11:32:30.916Z,5.15
2019-04-05T11:44:46.510Z,3.63
2019-04-05T11:47:13.934Z,5.82
2019-04-05T11:49:41.343Z,3.90
2019-04-05T11:52:08.746Z,4.80
2019-04-05T11:54:36.183Z,5.20
2019-04-05T11:57:03.573Z,4.15
2019-04-05T11:59:30.999Z,6.95
2019-04-05T12:01:58.428Z,4.95
2019-04-05T12:04:25.846Z,5.55
2019-04-05T12:06:53.246Z,4.60
2019-04-05T12:09:20.695Z,4.97
2019-04-05T12:11:48.224Z,6.63
2019-04-05T12:14:15.640Z,5.30
2019-04-05T12:16:43.069Z,8.20
2019-04-05T12:19:10.467Z,4.97
2019-04-05T12:21:37.883Z,6.40
2019-04-05T12:24:05.296Z,4.87
2019-04-05T12:26:34.530Z,3.65
2019-04-05T12:29:00.167Z,4.20
2019-04-05T12:31:27.573Z,4.50
2019-04-05T12:33:54.981Z,3.15
2019-04-05T12:36:22.764Z,4.67
2019-04-05T12:38:49.806Z,4.65
2019-04-05T12:48:38.132Z,4.70
2019-04-05T12:51:05.945Z,3.43
2019-04-05T12:53:33.094Z,5.10
2019-04-05T12:56:00.515Z,3.50
2019-04-05T12:58:28.676Z,4.30
2019-04-05T13:00:56.955Z,2.80
2019-04-05T13:13:12.130Z,3.53
2019-04-05T13:23:03.142Z,3.47
2019-04-05T13:25:28.138Z,3.65
2019-04-05T13:27:55.605Z,4.45
2019-04-05T13:30:23.015Z,3.35
2019-04-05T13:32:53.441Z,2.75
2019-04-05T13:35:18.846Z,3.25
2019-04-05T13:37:46.256Z,4.12
2019-04-05T13:40:13.659Z,3.03
2019-04-05T13:42:41.051Z,4.67
2019-04-05T13:45:08.525Z,4.30
2019-04-05T13:47:38.974Z,2.50
2019-04-05T13:50:03.381Z,2.20
2019-04-05T13:52:30.816Z,3.13
2019-04-05T13:54:58.235Z,2.90
2019-04-05T13:57:28.354Z,1.95
2019-04-05T13:59:53.164Z,2.40
2019-04-05T14:02:21.225Z,1.70
2019-04-05T14:04:48.013Z,2.20
2019-04-05T14:07:15.457Z,1.60
2019-04-05T14:09:42.865Z,4.13
2019-04-05T14:12:10.290Z,2.67
2019-04-05T14:14:39.447Z,2.08
2019-04-05T14:17:05.162Z,3.43
2019-04-05T14:19:32.564Z,4.17
2019-04-05T14:22:08.365Z,3.35
2019-04-05T14:24:28.351Z,3.05
2019-04-05T14:26:55.748Z,3.25
2019-04-05T14:29:23.250Z,3.12
2019-04-05T14:31:50.657Z,3.55
2019-04-05T14:34:18.068Z,3.30
2019-04-05T14:36:45.475Z,4.85
2019-04-05T14:39:12.894Z,4.87
2019-04-05T14:41:40.289Z,3.20
2019-04-05T14:44:07.719Z,4.22
2019-04-05T14:46:35.127Z,3.70
2019-04-05T14:49:02.541Z,3.47
2019-04-05T14:51:30.907Z,5.50
2019-04-05T14:53:59.571Z,4.70
2019-04-05T14:56:26.806Z,4.70
2019-04-05T15:01:20.199Z,5.35
2019-04-05T15:03:47.697Z,4.72
2019-04-05T15:06:15.123Z,4.90
2019-04-05T15:08:42.566Z,6.53
2019-04-05T15:11:11.191Z,4.45
2019-04-05T15:13:37.409Z,4.28
2019-04-05T15:16:04.930Z,3.97
2019-04-05T15:18:32.352Z,4.40
2019-04-05T15:20:59.747Z,5.60
2019-04-05T15:23:27.225Z,4.10
2019-04-05T15:25:55.169Z,4.78
2019-04-05T15:28:22.457Z,5.60
2019-04-05T15:30:49.816Z,4.55
2019-04-05T15:33:17.016Z,4.90
2019-04-05T15:35:44.431Z,4.95
2019-04-05T15:38:12.055Z,4.35
2019-04-05T15:43:13.343Z,5.07
2019-04-05T15:45:42.782Z,12.40
2019-04-05T15:48:09.067Z,4.23
2019-04-05T15:50:36.484Z,4.80
2019-04-05T15:53:03.921Z,4.00
2019-04-05T15:55:34.319Z,4.07
2019-04-05T15:58:01.414Z,4.68
2019-04-05T16:00:37.067Z,3.85
2019-04-05T16:03:04.493Z,3.45
2019-04-05T16:05:32.939Z,3.72
2019-04-05T16:08:00.346Z,3.37
2019-04-05T16:10:27.787Z,2.60
2019-04-05T16:12:55.222Z,3.70
2019-04-05T16:15:22.641Z,3.10
2019-04-05T16:17:50.098Z,3.45
2019-04-05T16:27:01.269Z,5.43
2019-04-05T16:29:28.711Z,3.60
2019-04-05T16:31:56.103Z,4.50
2019-04-05T16:34:23.524Z,4.53
2019-04-05T16:36:50.919Z,3.80
2019-04-05T16:39:18.408Z,4.00
2019-04-05T16:41:45.832Z,3.90
2019-04-05T16:44:13.255Z,3.17
2019-04-05T16:46:40.814Z,2.90
2019-04-05T16:49:08.222Z,3.80
2019-04-05T16:51:35.627Z,3.50
2019-04-05T16:54:03.024Z,3.20
2019-04-05T16:56:30.506Z,2.70
2019-04-05T16:58:57.928Z,3.00
2019-04-05T17:01:27.340Z,3.25
2019-04-05T17:03:52.860Z,3.50
2019-04-05T17:06:20.286Z,3.70
2019-04-05T17:08:47.674Z,6.05
2019-04-05T17:11:15.186Z,4.40
2019-04-05T17:13:42.614Z,5.50
2019-04-05T17:16:10.113Z,6.60
2019-04-05T17:18:37.522Z,6.97
2019-04-05T17:21:04.981Z,6.72
2019-04-05T17:23:33.248Z,6.22
2019-04-05T17:25:59.899Z,5.53
2019-04-05T17:28:27.308Z,5.00
2019-04-05T17:30:54.748Z,4.00
2019-04-05T17:33:22.539Z,5.00
2019-04-05T17:35:49.967Z,6.57
2019-04-05T17:38:17.367Z,5.75
2019-04-05T17:40:44.789Z,5.15
2019-04-05T17:43:12.194Z,4.87
2019-04-05T17:45:39.796Z,5.30
2019-04-05T17:48:07.193Z,5.60
2019-04-05T17:50:34.592Z,5.75
2019-04-05T17:53:12.177Z,5.20
2019-04-05T17:55:29.426Z,5.10
2019-04-05T17:57:56.835Z,5.35
2019-04-05T18:00:24.245Z,5.90
2019-04-05T18:02:51.641Z,5.35
2019-04-05T18:05:19.064Z,7.70
2019-04-05T18:07:46.498Z,7.35
2019-04-05T18:10:14.144Z,5.70
2019-04-05T18:12:41.587Z,6.10
2019-04-05T18:15:09.016Z,6.67
2019-04-05T18:17:36.652Z,5.90
2019-04-05T18:20:04.710Z,5.90
2019-04-05T18:22:32.151Z,6.30
2019-04-05T18:24:59.594Z,5.25
2019-04-05T18:27:27.029Z,5.18
2019-04-05T18:29:55.439Z,5.65
2019-04-05T18:32:22.851Z,6.60
2019-04-05T18:34:50.238Z,5.67
2019-04-05T18:37:17.655Z,5.95
2019-04-05T18:39:45.061Z,5.05
2019-04-05T18:42:12.459Z,5.37
2019-04-05T18:44:39.879Z,5.22
2019-04-05T18:47:07.273Z,4.43
2019-04-05T18:49:34.667Z,4.70
2019-04-05T18:52:02.065Z,6.00
2019-04-05T18:54:29.502Z,6.53
2019-04-05T18:56:56.958Z,5.97
2019-04-05T18:59:24.419Z,5.35
2019-04-05T19:01:52.247Z,4.85
2019-04-05T19:04:19.636Z,5.45
2019-04-05T19:06:47.046Z,5.90
2019-04-05T19:09:14.467Z,4.95
2019-04-05T19:11:41.946Z,7.93
2019-04-05T19:14:09.396Z,5.87
2019-04-05T19:16:36.828Z,6.03
2019-04-05T19:19:04.252Z,6.53
2019-04-05T19:21:31.665Z,5.87
2019-04-05T19:23:59.068Z,5.72
2019-04-05T19:26:26.479Z,5.32
2019-04-05T19:28:53.908Z,7.60
2019-04-05T19:48:35.376Z,5.47
2019-04-05T19:51:01.252Z,8.00
2019-04-05T19:53:28.670Z,6.95
2019-04-05T19:55:56.265Z,7.68
2019-04-05T19:58:23.772Z,5.78
2019-04-05T20:00:51.577Z,8.98
2019-04-05T20:03:19.023Z,6.25
2019-04-05T20:05:46.548Z,9.30
2019-04-05T20:08:14.068Z,6.37
2019-04-05T20:10:41.520Z,6.55
2019-04-05T20:13:08.971Z,7.05
2019-04-05T20:15:36.832Z,7.40
2019-04-05T20:18:04.297Z,6.60
2019-04-05T20:20:31.946Z,6.22
2019-04-05T20:22:59.696Z,6.80
2019-04-05T20:28:00.935Z,5.40
2019-04-05T20:30:29.549Z,6.70
2019-04-05T20:32:56.975Z,5.85
2019-04-05T20:35:24.429Z,6.70
2019-04-05T20:37:52.343Z,6.62
2019-04-05T20:40:19.813Z,7.12
2019-04-05T20:42:47.441Z,7.37
2019-04-05T20:45:14.932Z,7.68
2019-04-05T20:47:42.380Z,5.55
2019-04-05T20:50:09.807Z,7.82
2019-04-05T20:52:37.219Z,6.95
2019-04-05T20:55:05.321Z,7.18
2019-04-05T20:57:32.739Z,7.70
2019-04-05T21:00:00.136Z,6.85
2019-04-05T21:02:27.530Z,7.35
2019-04-05T21:04:54.956Z,7.13
2019-04-05T21:07:22.399Z,7.75
2019-04-05T21:09:49.916Z,8.35
2019-04-05T21:12:17.278Z,7.87
2019-04-05T21:14:44.691Z,6.60
2019-04-05T21:17:12.086Z,7.40
2019-04-05T21:19:39.512Z,7.53
2019-04-05T21:22:06.926Z,10.45
2019-04-05T21:24:36.236Z,7.27
2019-04-05T21:27:01.767Z,7.45
2019-04-05T21:29:29.893Z,8.20
2019-04-05T21:31:57.328Z,7.00
2019-04-05T21:34:24.747Z,7.65
2019-04-05T21:36:52.203Z,8.43
2019-04-05T21:39:19.665Z,5.55
2019-04-05T21:41:47.068Z,6.30
2019-04-05T21:44:14.532Z,6.43
2019-04-05T21:46:41.935Z,8.05
2019-04-05T21:49:09.351Z,7.20
2019-04-05T21:51:36.779Z,7.97
2019-04-05T21:54:04.356Z,7.80
2019-04-05T21:56:31.770Z,6.43
2019-04-05T21:58:59.283Z,6.78
2019-04-05T22:01:26.735Z,6.03
2019-04-05T22:03:54.129Z,8.85
2019-04-05T22:06:21.615Z,7.10
2019-04-05T22:08:49.006Z,8.68
2019-04-05T22:11:16.451Z,7.95
2019-04-05T22:13:43.853Z,8.40
2019-04-05T22:16:11.270Z,9.05
2019-04-05T22:18:38.724Z,8.65
2019-04-05T22:21:06.276Z,7.37
2019-04-05T22:23:33.659Z,7.60
2019-04-05T22:26:01.068Z,7.53
2019-04-05T22:28:28.550Z,8.52
2019-04-05T22:30:55.891Z,6.43
2019-04-05T22:33:23.289Z,7.28
2019-04-05T22:35:50.694Z,7.95
2019-04-05T22:38:18.115Z,7.53
2019-04-05T22:40:46.495Z,8.55
2019-04-05T22:43:13.920Z,8.48
2019-04-05T22:45:41.339Z,7.50
2019-04-05T22:48:08.733Z,7.60
2019-04-05T22:50:36.159Z,7.97
2019-04-05T22:53:04.224Z,7.30
2019-04-05T22:55:31.623Z,7.00
2019-04-05T22:57:59.033Z,6.93
2019-04-05T23:00:26.411Z,7.68
2019-04-05T23:02:53.831Z,7.10
2019-04-05T23:05:21.239Z,7.53
2019-04-05T23:07:48.722Z,8.57
2019-04-05T23:10:16.159Z,7.12
2019-04-05T23:12:43.540Z,9.15
2019-04-05T23:15:11.011Z,9.50
2019-04-05T23:17:38.436Z,8.75
2019-04-05T23:20:05.826Z,7.10
2019-04-05T23:22:33.231Z,9.30
2019-04-05T23:25:00.637Z,7.32
2019-04-05T23:27:28.041Z,9.48
2019-04-05T23:29:55.446Z,9.10
2019-04-05T23:32:22.964Z,7.60
2019-04-05T23:34:50.359Z,8.60
2019-04-05T23:37:17.833Z,7.68
2019-04-05T23:39:45.225Z,8.40
2019-04-05T23:42:12.737Z,10.32
2019-04-05T23:44:40.124Z,7.85
2019-04-05T23:47:07.564Z,7.80
2019-04-05T23:49:35.778Z,7.95
2019-04-05T23:52:03.189Z,7.82
2019-04-05T23:54:30.670Z,8.30
2019-04-05T23:56:58.419Z,8.18
2019-04-05T23:59:25.844Z,8.93
